Time;durP1;ratioP1;P1;durP2;ratioP2;P2;SDS_P1;SDS_P2;PMS_P1;PMS_P2;Temp;Humidity;BMP_temperature;BMP_pressure;BME280_temperature;BME280_humidity;BME280_pressure;Samples;Min_cycle;Max_cycle;Signal;HPM_P1;HPM_P2
2022/04/19 00:08:31;;;;;;;3.55;2.40;;;;;;;5.39;56.30;100845.00;5059210;28;20478;-86
2022/04/19 00:10:59;;;;;;;4.85;1.83;;;;;;;5.41;56.69;100840.59;5048268;28;20048;-85
2022/04/19 00:13:28;;;;;;;7.80;2.45;;;;;;;5.36;57.19;100835.53;5019537;28;20087;-84
2022/04/19 00:15:57;;;;;;;4.47;2.08;;;;;;;5.35;57.08;100831.19;5046278;28;20159;-85
2022/04/19 00:18:29;;;;;;;3.15;1.80;;;;;;;5.36;57.15;100829.44;5046238;28;20059;-86
2022/04/19 00:20:56;;;;;;;5.35;2.30;;;;;;;5.35;56.73;100825.97;5031186;28;20075;-84
2022/04/19 00:23:24;;;;;;;4.95;2.10;;;;;;;5.33;57.17;100836.47;5054745;28;20049;-86
2022/04/19 00:25:54;;;;;;;6.45;2.05;;;;;;;5.32;57.55;100832.16;5032553;28;20078;-85
2022/04/19 00:28:22;;;;;;;7.32;2.05;;;;;;;5.31;57.02;100827.84;5055253;28;20048;-84
2022/04/19 00:30:59;;;;;;;6.75;1.85;;;;;;;5.38;56.93;100825.88;5039412;28;20055;-84
2022/04/19 00:33:27;;;;;;;5.22;1.95;;;;;;;5.39;57.58;100827.56;5054800;28;20475;-82
2022/04/19 00:35:54;;;;;;;3.85;1.90;;;;;;;5.42;57.47;100824.03;5034064;28;20063;-85
2022/04/19 00:38:22;;;;;;;3.00;1.92;;;;;;;5.44;57.54;100824.81;5038610;28;20484;-85
2022/04/19 00:40:52;;;;;;;2.83;1.90;;;;;;;5.46;57.58;100825.63;5031280;28;20098;-83
2022/04/19 00:43:19;;;;;;;6.13;2.95;;;;;;;5.44;58.12;100828.25;5053702;28;20055;-85
2022/04/19 00:45:46;;;;;;;4.18;2.17;;;;;;;5.41;57.97;100823.16;5034785;28;20041;-83
2022/04/19 00:48:14;;;;;;;4.18;2.15;;;;;;;5.43;57.84;100821.34;5056377;28;20120;-83
2022/04/19 00:50:43;;;;;;;4.28;2.42;;;;;;;5.37;58.50;100821.56;5050011;28;20054;-84
2022/04/19 00:53:11;;;;;;;5.32;2.00;;;;;;;5.37;58.19;100808.50;5038449;28;20052;-86
2022/04/19 00:55:39;;;;;;;4.68;2.05;;;;;;;5.28;58.24;100807.06;5050354;28;20319;-86
2022/04/19 00:58:06;;;;;;;3.83;2.55;;;;;;;5.22;58.76;100815.13;5035739;28;20534;-87
2022/04/19 01:00:33;;;;;;;3.42;1.80;;;;;;;5.22;59.05;100814.25;5042012;28;20059;-82
2022/04/19 01:03:01;;;;;;;6.05;2.47;;;;;;;5.23;59.15;100811.59;5036802;28;20036;-80
2022/04/19 01:05:34;;;;;;;3.17;2.10;;;;;;;5.15;59.46;100804.94;5049188;28;20044;-86
2022/04/19 01:08:07;;;;;;;4.20;2.00;;;;;;;5.07;59.90;100807.78;5036800;28;20078;-85
2022/04/19 01:10:35;;;;;;;4.53;1.98;;;;;;;5.04;59.44;100813.97;5032894;28;20756;-86
2022/04/19 01:13:18;;;;;;;5.22;2.10;;;;;;;5.05;59.54;100813.06;5047632;28;20082;-85
2022/04/19 01:15:47;;;;;;;4.53;1.90;;;;;;;5.01;60.13;100801.03;5050650;28;20079;-86
2022/04/19 01:18:20;;;;;;;7.03;2.20;;;;;;;4.98;60.04;100802.88;5013361;28;20036;-87
2022/04/19 01:20:48;;;;;;;4.53;1.80;;;;;;;4.87;60.91;100813.66;5033440;28;20044;-86
2022/04/19 01:23:19;;;;;;;2.50;2.00;;;;;;;4.80;60.30;100809.53;5021229;28;20408;-82
2022/04/19 01:25:47;;;;;;;3.30;2.08;;;;;;;4.76;60.79;100808.78;5029900;28;20041;-84
2022/04/19 01:28:17;;;;;;;3.33;2.22;;;;;;;4.77;61.13;100817.44;5038143;28;20049;-85
2022/04/19 01:30:44;;;;;;;4.03;2.05;;;;;;;4.75;61.42;100812.28;5050149;28;20335;-85
2022/04/19 01:33:14;;;;;;;6.28;2.22;;;;;;;4.66;61.80;100803.91;5053852;28;20048;-83
2022/04/19 01:35:41;;;;;;;5.15;1.85;;;;;;;4.58;62.19;100806.75;5063553;28;20500;-83
2022/04/19 01:38:10;;;;;;;4.75;1.90;;;;;;;4.54;62.11;100811.19;5035600;28;20526;-85
2022/04/19 01:40:37;;;;;;;4.43;1.98;;;;;;;4.52;62.24;100807.81;5046185;28;20071;-84
2022/04/19 01:43:04;;;;;;;4.97;2.47;;;;;;;4.47;63.16;100803.63;5035887;28;20525;-85
2022/04/19 01:45:33;;;;;;;5.05;2.00;;;;;;;4.42;63.56;100802.94;5034162;28;20044;-82
2022/04/19 01:48:01;;;;;;;6.07;2.25;;;;;;;4.40;63.71;100797.75;5070320;28;20052;-82
2022/04/19 01:50:32;;;;;;;4.85;2.22;;;;;;;4.38;63.41;100783.06;5032722;28;20139;-85
2022/04/19 01:53:01;;;;;;;5.95;2.30;;;;;;;4.40;63.58;100792.53;5035432;28;20052;-85
2022/04/19 01:55:29;;;;;;;3.63;2.00;;;;;;;4.43;63.33;100795.06;5066358;28;20044;-85
2022/04/19 01:57:58;;;;;;;4.93;2.05;;;;;;;4.47;64.00;100785.38;5031330;28;20131;-82
2022/04/19 02:00:26;;;;;;;4.55;2.20;;;;;;;4.48;64.29;100787.94;5025637;28;20442;-84
2022/04/19 02:02:55;;;;;;;3.53;2.00;;;;;;;4.47;64.21;100796.66;5016501;28;20056;-84
2022/04/19 02:05:23;;;;;;;5.18;1.90;;;;;;;4.50;63.89;100790.50;5046328;28;20037;-84
2022/04/19 02:07:51;;;;;;;5.18;2.33;;;;;;;4.54;63.11;100782.53;5018532;28;20664;-82
2022/04/19 02:10:19;;;;;;;3.72;2.03;;;;;;;4.52;64.34;100784.34;5033769;28;20052;-85
2022/04/19 02:12:47;;;;;;;5.43;2.70;;;;;;;4.58;63.67;100785.88;5035367;28;20485;-86
2022/04/19 02:15:15;;;;;;;6.75;3.15;;;;;;;4.62;63.52;100778.84;5017820;28;20040;-84
2022/04/19 02:17:47;;;;;;;4.18;2.55;;;;;;;4.67;63.73;100766.50;5047789;28;20494;-81
2022/04/19 02:20:17;;;;;;;3.83;2.35;;;;;;;4.67;63.38;100774.31;5032500;28;20044;-86
2022/04/19 02:22:46;;;;;;;4.80;2.50;;;;;;;4.70;63.06;100766.41;5034223;28;20059;-85
2022/04/19 02:25:16;;;;;;;4.88;2.47;;;;;;;4.71;62.46;100766.34;5033480;28;20058;-85
2022/04/19 02:27:45;;;;;;;6.32;2.30;;;;;;;4.71;62.91;100770.72;5018106;28;20231;-85
2022/04/19 02:30:14;;;;;;;5.80;2.42;;;;;;;4.71;62.74;100765.50;5031763;28;20033;-86
2022/04/19 02:32:46;;;;;;;7.88;2.55;;;;;;;4.69;63.17;100773.38;5051700;28;20044;-87
2022/04/19 02:35:18;;;;;;;8.35;2.50;;;;;;;4.66;63.19;100770.00;5042390;28;20125;-86
2022/04/19 02:37:55;;;;;;;4.82;2.42;;;;;;;4.63;63.24;100784.00;5050795;28;20090;-83
2022/04/19 02:40:24;;;;;;;4.70;2.35;;;;;;;4.60;63.50;100783.25;5027297;28;20041;-85
2022/04/19 02:42:53;;;;;;;3.63;2.25;;;;;;;4.60;63.53;100781.50;5057329;28;20055;-85
2022/04/19 02:45:22;;;;;;;6.40;2.67;;;;;;;4.61;63.65;100777.13;5033458;28;20048;-85
2022/04/19 02:48:04;;;;;;;4.50;1.88;;;;;;;4.57;63.03;100785.03;5051548;28;20044;-85
2022/04/19 02:50:41;;;;;;;6.00;2.20;;;;;;;4.53;63.18;100780.81;5029892;28;20060;-83
2022/04/19 02:53:09;;;;;;;6.82;2.72;;;;;;;4.50;63.27;100783.56;5033982;28;20120;-85
2022/04/19 02:55:37;;;;;;;3.53;2.30;;;;;;;4.46;63.81;100784.53;5031383;28;20400;-85
2022/04/19 02:58:07;;;;;;;8.10;2.65;;;;;;;4.42;63.89;100774.25;5036329;28;20059;-85
2022/04/19 03:00:34;;;;;;;6.13;2.67;;;;;;;4.44;63.60;100772.44;5049056;28;20498;-84
2022/04/19 03:03:01;;;;;;;6.93;2.55;;;;;;;4.43;63.13;100775.97;5013406;28;20044;-85
2022/04/19 03:05:33;;;;;;;5.25;2.83;;;;;;;4.39;63.25;100776.94;5029788;28;20040;-86
2022/04/19 03:08:02;;;;;;;9.48;2.47;;;;;;;4.32;63.71;100766.72;5017273;28;20071;-85
2022/04/19 03:10:32;;;;;;;5.80;2.75;;;;;;;4.28;64.55;100775.53;5035919;28;20434;-86
2022/04/19 03:13:00;;;;;;;5.57;2.50;;;;;;;4.21;64.56;100760.97;5046185;28;20045;-83
2022/04/19 03:15:29;;;;;;;6.72;3.30;;;;;;;4.14;65.17;100766.41;5041830;28;20075;-84
2022/04/19 03:17:56;;;;;;;7.00;2.15;;;;;;;4.11;64.64;100766.53;5046327;28;20063;-83
2022/04/19 03:20:24;;;;;;;5.30;2.50;;;;;;;4.10;65.26;100772.59;5043517;28;20059;-84
2022/04/19 03:28:29;;;;;;;5.03;2.30;;;;;;;4.07;64.85;100763.16;5053732;28;20418;-83
2022/04/19 03:30:57;;;;;;;5.32;2.42;;;;;;;4.05;65.16;100764.94;5020449;28;20097;-84
2022/04/19 03:33:25;;;;;;;7.15;2.47;;;;;;;4.01;65.19;100768.56;5029690;28;20044;-86
2022/04/19 03:35:56;;;;;;;4.35;2.53;;;;;;;3.96;65.81;100760.00;5031439;28;20044;-83
2022/04/19 03:38:23;;;;;;;5.93;2.47;;;;;;;3.89;66.33;100766.28;5052033;28;20147;-86
2022/04/19 03:40:50;;;;;;;6.05;2.42;;;;;;;3.85;66.18;100754.25;5029235;28;20044;-85
2022/04/19 03:43:18;;;;;;;5.97;2.22;;;;;;;3.78;66.83;100751.84;5060923;28;20139;-83
2022/04/19 03:45:45;;;;;;;4.22;2.30;;;;;;;3.80;65.54;100763.06;5026887;28;20070;-85
2022/04/19 03:48:15;;;;;;;8.13;2.83;;;;;;;3.73;66.22;100766.72;5048026;28;20052;-82
2022/04/19 03:50:42;;;;;;;5.63;2.72;;;;;;;3.72;66.35;100774.59;5046936;28;20064;-86
2022/04/19 03:53:10;;;;;;;5.70;2.63;;;;;;;3.69;66.92;100779.88;5053324;28;20139;-87
2022/04/19 03:55:37;;;;;;;9.40;3.00;;;;;;;3.67;66.87;100776.47;5026780;28;20052;-86
2022/04/19 03:58:05;;;;;;;5.63;2.78;;;;;;;3.62;66.64;100774.00;5035191;28;20044;-88
2022/04/19 04:00:33;;;;;;;6.25;2.22;;;;;;;3.63;66.88;100775.69;5049473;28;20406;-85
2022/04/19 04:03:01;;;;;;;5.72;2.80;;;;;;;3.60;67.37;100775.78;5022702;28;20140;-79
2022/04/19 04:05:36;;;;;;;7.00;3.05;;;;;;;3.58;67.22;100771.53;5064161;28;20136;-84
2022/04/19 04:08:06;;;;;;;6.05;2.63;;;;;;;3.50;67.84;100761.31;5036178;28;20060;-84
2022/04/19 04:10:35;;;;;;;5.35;2.55;;;;;;;3.54;67.37;100766.38;5016912;28;20044;-86
2022/04/19 04:13:04;;;;;;;5.63;2.40;;;;;;;3.59;67.41;100768.00;5050189;28;20041;-85
2022/04/19 04:15:32;;;;;;;4.93;2.25;;;;;;;3.61;67.06;100769.69;5047091;28;20049;-86
2022/04/19 04:17:59;;;;;;;5.63;2.55;;;;;;;3.64;67.13;100771.34;5019089;28;20052;-84
2022/04/19 04:20:27;;;;;;;3.92;2.13;;;;;;;3.64;67.11;100764.38;5031326;28;20072;-83
2022/04/19 04:22:54;;;;;;;5.40;2.67;;;;;;;3.62;67.24;100763.59;5016879;28;20049;-83
2022/04/19 04:25:23;;;;;;;5.13;2.55;;;;;;;3.61;67.00;100774.91;5029194;28;20162;-84
2022/04/19 04:27:50;;;;;;;4.88;2.58;;;;;;;3.66;67.48;100772.16;5038055;28;20116;-82
2022/04/19 04:30:21;;;;;;;4.70;2.78;;;;;;;3.71;67.45;100781.53;5048049;28;20388;-84
2022/04/19 04:32:48;;;;;;;5.70;2.65;;;;;;;3.72;67.13;100774.59;5029865;28;20067;-84
2022/04/19 04:35:18;;;;;;;9.18;2.55;;;;;;;3.69;67.45;100772.94;5015313;28;20062;-80
2022/04/19 04:37:45;;;;;;;7.70;2.65;;;;;;;3.70;67.74;100781.59;5033318;28;20045;-82
2022/04/19 04:40:13;;;;;;;6.30;3.50;;;;;;;3.69;67.73;100779.88;5031867;28;20055;-84
2022/04/19 04:42:44;;;;;;;8.25;3.30;;;;;;;3.72;68.09;100785.84;5049588;28;20045;-84
2022/04/19 04:45:14;;;;;;;9.65;2.88;;;;;;;3.72;67.96;100772.81;5033366;28;20071;-81
2022/04/19 04:50:29;;;;;;;8.07;3.30;;;;;;;3.80;68.40;100777.81;5042081;28;20055;-83
2022/04/19 04:52:56;;;;;;;5.57;2.92;;;;;;;3.83;68.22;100775.16;5017284;28;20045;-85
2022/04/19 04:55:24;;;;;;;8.15;2.97;;;;;;;3.90;68.18;100776.66;5031243;28;20039;-85
2022/04/19 04:57:56;;;;;;;3.97;2.88;;;;;;;3.97;68.03;100786.00;5044871;28;20064;-84
2022/04/19 05:00:27;;;;;;;6.18;2.60;;;;;;;3.93;68.76;100779.19;5032289;28;20045;-85
2022/04/19 05:03:02;;;;;;;5.47;2.58;;;;;;;4.03;68.14;100784.97;5053557;28;20423;-87
2022/04/19 05:05:30;;;;;;;6.65;3.10;;;;;;;4.03;68.97;100775.41;5011410;28;20044;-83
2022/04/19 05:07:58;;;;;;;5.85;2.90;;;;;;;4.13;68.94;100770.78;5034970;28;20090;-80
2022/04/19 05:10:28;;;;;;;4.22;2.42;;;;;;;4.16;68.25;100777.66;5017556;28;20052;-87
2022/04/19 05:13:01;;;;;;;6.43;2.63;;;;;;;4.16;68.90;100769.84;5055067;28;20048;-81
2022/04/19 05:15:30;;;;;;;7.90;3.28;;;;;;;4.25;68.23;100770.41;5051465;28;20384;-85
2022/04/19 05:17:58;;;;;;;6.38;3.15;;;;;;;4.34;68.60;100769.28;5018206;28;20144;-83
2022/04/19 05:20:25;;;;;;;5.53;3.15;;;;;;;4.39;68.25;100777.81;5050557;28;20079;-85
2022/04/19 05:22:53;;;;;;;6.82;3.15;;;;;;;4.39;68.84;100771.75;5020596;28;20044;-85
2022/04/19 05:25:22;;;;;;;5.65;3.05;;;;;;;4.48;67.97;100780.13;5035639;28;20032;-84
2022/04/19 05:27:49;;;;;;;7.32;3.60;;;;;;;4.54;67.80;100785.13;5053051;28;20048;-85
2022/04/19 05:30:20;;;;;;;8.63;3.50;;;;;;;4.61;68.25;100784.97;5052214;28;20056;-84
2022/04/19 05:32:53;;;;;;;7.93;3.38;;;;;;;4.67;67.38;100783.00;5054159;28;20095;-85
2022/04/19 05:35:21;;;;;;;8.82;3.65;;;;;;;4.70;67.92;100782.06;5037424;28;20060;-83
2022/04/19 05:37:49;;;;;;;6.13;3.30;;;;;;;4.71;68.31;100788.97;5068359;28;20047;-86
2022/04/19 05:40:17;;;;;;;12.75;3.83;;;;;;;4.85;67.24;100791.97;5034587;28;20048;-85
2022/04/19 05:42:45;;;;;;;6.00;2.95;;;;;;;4.94;66.89;100794.28;5018252;28;20128;-85
2022/04/19 05:45:14;;;;;;;5.80;2.80;;;;;;;4.99;67.19;100796.75;5022289;28;20044;-83
2022/04/19 05:47:43;;;;;;;6.82;3.40;;;;;;;5.11;66.40;100803.31;5050497;28;20040;-84
2022/04/19 05:50:11;;;;;;;8.02;3.75;;;;;;;5.13;66.57;100804.97;5050369;28;20476;-80
2022/04/19 05:52:38;;;;;;;6.18;2.95;;;;;;;5.15;66.46;100804.94;5059175;28;20049;-83
2022/04/19 05:55:08;;;;;;;7.47;3.53;;;;;;;5.21;65.95;100810.78;5052531;28;20047;-82
2022/04/19 05:57:39;;;;;;;5.65;3.78;;;;;;;5.30;65.05;100810.47;5019294;28;20327;-87
2022/04/19 06:00:07;;;;;;;7.28;3.72;;;;;;;5.42;65.35;100814.41;5022227;28;20067;-82
2022/04/19 06:05:24;;;;;;;14.32;3.75;;;;;;;5.62;64.34;100812.88;5074204;28;20099;-82
2022/04/19 06:07:55;;;;;;;5.47;3.15;;;;;;;5.67;63.95;100809.19;5037684;28;20040;-83
2022/04/19 06:10:24;;;;;;;7.35;3.28;;;;;;;5.77;63.66;100805.34;5054519;28;20568;-85
2022/04/19 06:12:54;;;;;;;9.77;3.63;;;;;;;5.91;63.12;100809.22;5022959;28;20137;-84
2022/04/19 06:15:22;;;;;;;8.40;3.55;;;;;;;5.94;62.84;100811.72;5018779;28;20090;-83
2022/04/19 06:17:52;;;;;;;6.63;3.08;;;;;;;6.05;62.35;100806.97;5040397;28;20071;-85
2022/04/19 06:20:22;;;;;;;7.57;3.70;;;;;;;6.11;61.72;100809.34;5048920;28;20052;-85
2022/04/19 06:22:50;;;;;;;6.13;3.58;;;;;;;6.20;61.97;100810.78;5072592;28;20048;-85
2022/04/19 06:25:17;;;;;;;6.30;3.78;;;;;;;6.31;60.74;100812.06;5037158;28;20047;-84
2022/04/19 06:27:46;;;;;;;7.88;4.13;;;;;;;6.43;60.82;100804.66;5021755;28;20105;-83
2022/04/19 06:30:14;;;;;;;4.97;3.10;;;;;;;6.50;60.49;100806.97;5053235;28;20059;-85
2022/04/19 06:32:44;;;;;;;9.30;3.90;;;;;;;6.56;60.40;100811.13;5078770;28;20045;-85
2022/04/19 06:35:12;;;;;;;5.68;3.60;;;;;;;6.71;59.75;100809.66;5039674;28;20044;-85
2022/04/19 06:37:40;;;;;;;6.95;3.40;;;;;;;6.81;58.62;100811.84;5059932;28;20083;-83
2022/04/19 06:40:08;;;;;;;9.98;3.92;;;;;;;6.94;58.42;100814.81;5055792;28;20096;-84
2022/04/19 06:42:37;;;;;;;6.13;3.53;;;;;;;6.99;58.71;100812.88;5023375;28;20040;-84
2022/04/19 06:45:04;;;;;;;5.45;3.72;;;;;;;7.16;57.84;100806.06;5017050;28;20064;-87
2022/04/19 06:47:34;;;;;;;7.35;3.80;;;;;;;7.20;57.30;100810.25;5050790;28;20059;-82
2022/04/19 06:50:02;;;;;;;10.18;4.43;;;;;;;7.20;57.69;100807.63;5034424;28;20044;-84
2022/04/19 06:52:30;;;;;;;6.90;3.38;;;;;;;7.33;57.13;100809.69;5033293;28;20147;-82
2022/04/19 06:54:58;;;;;;;6.88;4.05;;;;;;;7.45;56.43;100815.31;5050049;28;20032;-85
2022/04/19 06:57:26;;;;;;;12.63;4.60;;;;;;;7.53;56.11;100813.22;5050174;28;20036;-83
2022/04/19 06:59:53;;;;;;;5.65;3.60;;;;;;;7.57;56.29;100807.78;5053595;28;20472;-81
2022/04/19 07:02:20;;;;;;;5.88;3.95;;;;;;;7.67;55.35;100807.38;5027372;28;20067;-84
2022/04/19 07:04:49;;;;;;;7.90;3.83;;;;;;;7.74;55.10;100812.28;5039905;28;20041;-80
2022/04/19 07:07:18;;;;;;;8.40;4.00;;;;;;;7.92;54.00;100813.22;5044144;28;20032;-84
2022/04/19 07:09:47;;;;;;;7.72;4.60;;;;;;;8.00;53.72;100816.34;5063212;28;20040;-81
2022/04/19 07:12:20;;;;;;;6.53;3.85;;;;;;;8.12;52.47;100813.19;5026310;28;20036;-86
2022/04/19 07:14:49;;;;;;;13.35;4.38;;;;;;;8.20;52.87;100819.88;5048417;28;20132;-83
2022/04/19 07:17:17;;;;;;;6.30;4.13;;;;;;;8.37;52.31;100814.69;5034126;28;20040;-84
2022/04/19 07:28:08;;;;;;;9.55;4.05;;;;;;;8.84;49.94;100817.69;5039213;28;20061;-85
2022/04/19 07:30:38;;;;;;;9.38;4.38;;;;;;;8.88;48.54;100818.41;5059403;28;20052;-85
2022/04/19 07:33:06;;;;;;;6.35;3.53;;;;;;;8.98;49.16;100818.78;5019528;28;20048;-86
2022/04/19 07:35:36;;;;;;;8.38;3.70;;;;;;;9.14;48.05;100819.75;5032419;28;20048;-86
2022/04/19 07:38:05;;;;;;;10.98;3.70;;;;;;;9.10;46.71;100811.16;5055300;28;20127;-86
2022/04/19 07:40:35;;;;;;;10.88;3.72;;;;;;;9.25;47.48;100803.44;5034813;28;20048;-85
2022/04/19 07:43:07;;;;;;;7.28;4.10;;;;;;;9.47;47.17;100811.94;5022186;28;20718;-84
2022/04/19 07:45:36;;;;;;;8.07;3.58;;;;;;;9.57;46.58;100818.41;5050319;28;20036;-86
2022/04/19 07:48:05;;;;;;;7.20;3.28;;;;;;;9.63;46.70;100810.19;5017449;28;20228;-84
2022/04/19 07:50:34;;;;;;;5.18;3.30;;;;;;;9.87;45.31;100820.38;5029999;28;20220;-85
2022/04/19 07:53:01;;;;;;;5.80;2.95;;;;;;;9.97;44.37;100816.31;5038306;28;20051;-79
2022/04/19 07:55:29;;;;;;;4.60;2.72;;;;;;;10.10;44.64;100809.47;5043888;28;20045;-82
2022/04/19 07:57:56;;;;;;;5.05;2.67;;;;;;;10.20;45.04;100811.59;5065499;28;20063;-81
2022/04/19 08:00:28;;;;;;;11.73;3.65;;;;;;;10.30;44.64;100808.41;5032299;28;20488;-86
2022/04/19 08:02:56;;;;;;;9.48;3.05;;;;;;;10.51;44.83;100810.78;5032122;28;20226;-85
2022/04/19 08:05:24;;;;;;;4.93;2.75;;;;;;;10.71;44.11;100815.78;5046749;28;20043;-85
2022/04/19 08:07:51;;;;;;;8.55;2.38;;;;;;;10.98;43.71;100808.09;5051000;28;20070;-81
2022/04/19 08:10:21;;;;;;;5.32;2.55;;;;;;;11.05;41.71;100811.22;5060831;28;20359;-83
2022/04/19 08:12:49;;;;;;;12.85;2.47;;;;;;;11.08;40.99;100808.44;5049692;28;20437;-83
2022/04/19 08:15:18;;;;;;;5.43;3.42;;;;;;;11.14;41.73;100801.00;5016564;28;20047;-84
2022/04/19 08:17:46;;;;;;;6.35;2.75;;;;;;;11.30;41.76;100802.72;5035320;28;20139;-83
2022/04/19 08:20:14;;;;;;;40.67;21.10;;;;;;;11.38;41.79;100803.97;5034649;28;20078;-86
2022/04/19 08:22:41;;;;;;;73.80;43.13;;;;;;;11.43;42.44;100797.59;5049661;28;20082;-84
2022/04/19 08:25:10;;;;;;;382.10;36.42;;;;;;;11.70;41.72;100795.06;5042130;28;20036;-85
2022/04/19 08:27:41;;;;;;;4.60;2.97;;;;;;;11.87;41.13;100793.13;5050364;28;20055;-86
2022/04/19 08:30:10;;;;;;;7.00;2.47;;;;;;;12.03;42.12;100790.41;5032384;28;20044;-84
2022/04/19 08:32:37;;;;;;;6.18;2.45;;;;;;;12.16;40.83;100785.22;5039065;28;20047;-84
2022/04/19 08:35:05;;;;;;;3.78;2.30;;;;;;;12.30;40.26;100789.63;5056328;28;20036;-86
2022/04/19 08:37:34;;;;;;;5.10;2.40;;;;;;;12.40;39.50;100786.28;5048508;28;20091;-83
2022/04/19 08:40:07;;;;;;;3.80;2.20;;;;;;;12.48;38.62;100787.59;5046587;28;20273;-82
2022/04/19 08:42:38;;;;;;;6.05;2.10;;;;;;;12.52;38.80;100784.66;5046050;28;20088;-82
2022/04/19 08:45:07;;;;;;;8.10;2.00;;;;;;;12.67;39.33;100783.66;5035662;28;20488;-81
2022/04/19 08:47:40;;;;;;;4.55;2.33;;;;;;;12.72;38.83;100779.88;5016615;28;20571;-80
2022/04/19 08:50:10;;;;;;;5.85;3.00;;;;;;;12.46;37.44;100774.47;5041952;28;20037;-80
2022/04/19 08:52:41;;;;;;;4.65;2.30;;;;;;;12.42;38.66;100780.91;5059677;28;20123;-81
2022/04/19 08:57:59;;;;;;;3.78;1.63;;;;;;;12.85;38.13;100780.75;5038456;28;20072;-79
2022/04/19 09:00:29;;;;;;;7.00;1.70;;;;;;;12.89;37.71;100784.91;5024332;28;20068;-82
2022/04/19 09:02:58;;;;;;;3.78;2.03;;;;;;;13.05;37.63;100782.06;5036274;28;20060;-81
2022/04/19 09:05:27;;;;;;;3.53;1.83;;;;;;;13.00;37.68;100784.19;5004226;28;20134;-82
2022/04/19 09:07:57;;;;;;;2.95;1.58;;;;;;;13.11;37.03;100795.75;5019155;28;20405;-82
2022/04/19 09:10:33;;;;;;;3.58;1.70;;;;;;;13.06;36.69;100794.34;5030068;28;20045;-81
2022/04/19 09:13:15;;;;;;;3.47;1.60;;;;;;;13.15;37.57;100788.47;5036912;28;20045;-80
2022/04/19 09:15:48;;;;;;;2.90;1.55;;;;;;;13.17;36.80;100802.41;5014973;28;20048;-80
2022/04/19 09:18:24;;;;;;;3.15;1.90;;;;;;;13.19;37.42;100803.13;5020399;28;20049;-81
2022/04/19 09:20:52;;;;;;;3.50;1.40;;;;;;;13.36;37.62;100797.59;5029627;28;20066;-81
2022/04/19 09:23:26;;;;;;;7.72;2.25;;;;;;;13.43;36.77;100796.25;5042283;28;20328;-82
2022/04/19 09:26:00;;;;;;;4.95;1.73;;;;;;;13.49;37.59;100787.03;5030541;28;20053;-84
2022/04/19 09:28:32;;;;;;;10.05;1.52;;;;;;;13.22;37.40;100792.41;5019542;28;20417;-84
2022/04/19 09:31:15;;;;;;;5.13;1.83;;;;;;;13.05;37.65;100779.44;5031907;28;20048;-83
2022/04/19 09:33:44;;;;;;;6.05;1.38;;;;;;;13.13;38.72;100780.59;5046535;28;20527;-84
2022/04/19 09:36:26;;;;;;;3.03;1.50;;;;;;;13.53;38.52;100777.09;5050613;28;20427;-81
2022/04/19 09:38:58;;;;;;;2.55;1.52;;;;;;;13.84;37.88;100791.69;5032888;28;20048;-82
2022/04/19 09:41:31;;;;;;;4.57;1.40;;;;;;;13.94;37.20;100777.69;5050791;28;20240;-82
2022/04/19 09:44:17;;;;;;;4.18;1.45;;;;;;;14.15;37.39;100785.09;5036087;28;20052;-82
2022/04/19 09:47:09;;;;;;;3.10;1.38;;;;;;;14.48;37.12;100779.19;5047520;28;20056;-83
2022/04/19 09:49:44;;;;;;;4.28;1.60;;;;;;;14.74;36.96;100779.09;5041733;28;20491;-82
2022/04/19 09:52:43;;;;;;;3.00;1.25;;;;;;;14.77;35.06;100784.13;5018470;28;20230;-82
2022/04/19 09:55:17;;;;;;;3.03;1.60;;;;;;;14.61;34.65;100784.44;5051061;28;20044;-82
2022/04/19 09:57:52;;;;;;;4.10;1.30;;;;;;;14.68;35.07;100773.28;5056033;28;20120;-81
2022/04/19 10:00:21;;;;;;;15.23;10.68;;;;;;;14.84;36.34;100780.94;5025195;28;20068;-82
2022/04/19 10:08:33;;;;;;;6.68;2.72;;;;;;;15.20;34.88;100779.13;5038719;28;19928;-87
2022/04/19 10:11:01;;;;;;;8.23;1.40;;;;;;;14.87;33.47;100778.06;5053385;28;20547;-90
2022/04/19 10:13:34;;;;;;;4.13;1.20;;;;;;;14.79;33.86;100776.94;5021723;28;20044;-86
2022/04/19 10:16:30;;;;;;;3.20;1.67;;;;;;;15.04;33.88;100768.84;5006248;28;20041;-86
2022/04/19 10:19:00;;;;;;;3.75;1.60;;;;;;;15.22;33.91;100771.03;5038529;28;20044;-85
2022/04/19 10:21:42;;;;;;;4.07;1.33;;;;;;;15.56;33.77;100766.66;5023334;28;20078;-89
2022/04/19 10:24:15;;;;;;;2.97;1.80;;;;;;;15.81;34.47;100761.19;5032666;28;20041;-85
2022/04/19 10:26:48;;;;;;;4.57;1.08;;;;;;;16.25;32.89;100755.94;5050182;28;20044;-85
2022/04/19 10:29:31;;;;;;;5.00;1.73;;;;;;;16.56;33.45;100754.28;5036138;28;20498;-88
2022/04/19 10:32:03;;;;;;;6.07;2.40;;;;;;;16.59;32.61;100765.50;5032478;28;20186;-89
2022/04/19 10:34:34;;;;;;;1.65;1.25;;;;;;;16.59;31.54;100762.84;5049825;28;20162;-84
2022/04/19 10:37:23;;;;;;;4.18;1.80;;;;;;;16.72;30.74;100765.38;5034566;28;20062;-86
2022/04/19 10:40:04;;;;;;;5.10;2.03;;;;;;;17.27;30.81;100766.09;5026506;28;20041;-84
2022/04/19 10:42:44;;;;;;;3.88;1.70;;;;;;;17.73;30.04;100759.47;5032103;28;20052;-85
2022/04/19 10:45:14;;;;;;;2.88;1.05;;;;;;;18.31;29.66;100753.53;5063529;28;20132;-84
2022/04/19 10:47:56;;;;;;;3.42;1.40;;;;;;;18.23;28.28;100755.03;5035867;28;20060;-84
2022/04/19 10:50:39;;;;;;;4.68;1.60;;;;;;;18.09;28.22;100762.59;5047305;28;20045;-85
2022/04/19 10:53:12;;;;;;;4.03;1.58;;;;;;;18.40;28.82;100776.69;5035761;28;20537;-84
2022/04/19 10:55:56;;;;;;;3.35;1.30;;;;;;;18.80;28.74;100767.78;5011960;28;20072;-84
2022/04/19 10:58:42;;;;;;;1.63;1.27;;;;;;;18.61;27.37;100780.09;5038741;28;20517;-85
2022/04/19 11:01:31;;;;;;;4.57;1.52;;;;;;;18.70;28.80;100776.63;5027795;28;20051;-84
2022/04/19 11:04:00;;;;;;;6.45;1.58;;;;;;;18.56;27.46;100774.34;5048119;28;20045;-85
2022/04/19 11:06:37;;;;;;;3.25;1.63;;;;;;;18.19;28.15;100763.44;5029421;28;20490;-84
2022/04/19 11:09:06;;;;;;;5.28;1.38;;;;;;;17.91;28.16;100775.69;5017236;28;20120;-84
2022/04/19 11:12:15;;;;;;;3.72;1.80;;;;;;;17.53;28.97;100766.53;5054938;28;20383;-84
2022/04/19 11:14:44;;;;;;;3.08;1.60;;;;;;;17.49;28.38;100769.59;5061121;28;20052;-83
2022/04/19 11:17:23;;;;;;;4.85;1.73;;;;;;;17.24;29.71;100769.00;5035284;28;20047;-83
2022/04/19 11:20:14;;;;;;;2.45;1.30;;;;;;;16.86;29.35;100775.72;5066167;28;20082;-83
2022/04/19 11:22:51;;;;;;;4.43;1.60;;;;;;;16.82;29.98;100778.75;5018379;28;20472;-83
2022/04/19 11:25:39;;;;;;;3.50;1.52;;;;;;;16.67;29.42;100771.03;5031138;28;20047;-84
2022/04/19 11:28:09;;;;;;;3.08;1.67;;;;;;;16.51;30.54;100777.72;5032322;28;20070;-83
2022/04/19 11:30:43;;;;;;;2.97;1.77;;;;;;;16.60;30.39;100780.47;5043660;28;20049;-84
2022/04/19 11:33:20;;;;;;;2.35;1.30;;;;;;;16.78;30.30;100786.13;5034700;28;20391;-84
2022/04/19 11:36:06;;;;;;;2.70;1.55;;;;;;;17.03;30.76;100786.78;5041253;28;20490;-83
2022/04/19 11:38:40;;;;;;;5.90;1.83;;;;;;;17.37;29.64;100782.09;5026897;28;20053;-84
2022/04/19 11:46:48;;;;;;;3.13;1.90;;;;;;;16.80;30.24;100780.72;5049844;28;20059;-84
2022/04/19 11:49:29;;;;;;;4.10;1.50;;;;;;;17.13;30.02;100777.88;5032038;28;20110;-84
2022/04/19 11:52:00;;;;;;;5.18;1.65;;;;;;;17.17;30.34;100775.81;5048547;28;20068;-84
2022/04/19 11:54:32;;;;;;;3.30;1.50;;;;;;;17.17;30.48;100774.00;5048891;28;20075;-84
2022/04/19 11:57:05;;;;;;;4.13;1.50;;;;;;;17.04;30.47;100780.47;5016229;28;20446;-84
2022/04/19 11:59:55;;;;;;;7.15;1.98;;;;;;;17.49;30.81;100783.72;5048124;28;20148;-84
2022/04/19 12:02:22;;;;;;;4.72;2.15;;;;;;;17.28;30.61;100764.25;5030330;28;20045;-84
2022/04/19 12:04:56;;;;;;;2.50;1.40;;;;;;;16.90;31.03;100784.28;5047257;28;20123;-84
2022/04/19 12:07:27;;;;;;;4.03;1.50;;;;;;;16.94;31.11;100781.25;5028154;28;20397;-85
2022/04/19 12:09:57;;;;;;;5.40;1.48;;;;;;;16.79;31.36;100777.19;5052710;28;20041;-83
2022/04/19 12:12:25;;;;;;;3.28;1.55;;;;;;;16.83;31.43;100780.44;5039761;28;20045;-83
2022/04/19 12:15:09;;;;;;;3.00;1.73;;;;;;;17.35;31.15;100789.38;5054015;28;20119;-85
2022/04/19 12:17:44;;;;;;;2.58;1.50;;;;;;;17.83;30.45;100773.72;5024279;28;20048;-83
2022/04/19 12:20:11;;;;;;;3.70;1.60;;;;;;;17.59;30.44;100781.97;5012968;28;20044;-84
2022/04/19 12:22:48;;;;;;;4.75;1.70;;;;;;;17.59;31.37;100787.28;5035085;28;20043;-83
2022/04/19 12:25:22;;;;;;;3.65;1.23;;;;;;;18.42;30.33;100774.75;5053095;28;20450;-84
2022/04/19 12:27:58;;;;;;;4.35;1.48;;;;;;;19.43;29.95;100774.34;5021955;28;20058;-84